createdAt,value
2018-07-13T00:00:42.719Z,13.43
2018-07-13T00:03:11.965Z,13.93
2018-07-13T00:05:40.202Z,13.13
2018-07-13T00:08:08.460Z,12.63
2018-07-13T00:10:36.696Z,13.50
2018-07-13T00:13:05.161Z,14.97
2018-07-13T00:15:33.419Z,13.00
2018-07-13T00:18:01.780Z,13.50
2018-07-13T00:20:30.035Z,12.90
2018-07-13T00:22:58.307Z,13.13
2018-07-13T00:25:26.605Z,14.43
2018-07-13T00:27:54.847Z,13.20
2018-07-13T00:30:23.136Z,12.87
2018-07-13T00:32:52.337Z,13.30
2018-07-13T00:35:20.631Z,12.93
2018-07-13T00:37:48.863Z,12.93
2018-07-13T00:40:17.164Z,15.27
2018-07-13T00:42:45.453Z,12.37
2018-07-13T00:45:13.795Z,11.97
2018-07-13T00:47:42.028Z,12.67
2018-07-13T00:50:10.297Z,12.63
2018-07-13T00:52:38.588Z,12.20
2018-07-13T00:55:06.983Z,12.30
2018-07-13T00:57:35.218Z,15.83
2018-07-13T01:00:04.105Z,11.97
2018-07-13T01:02:32.867Z,12.23
2018-07-13T01:05:01.193Z,15.07
2018-07-13T01:07:29.133Z,13.00
2018-07-13T01:09:57.378Z,16.63
2018-07-13T01:12:25.643Z,14.87
2018-07-13T01:14:53.944Z,14.17
2018-07-13T01:17:22.943Z,14.33
2018-07-13T01:19:51.236Z,13.83
2018-07-13T01:22:19.465Z,15.67
2018-07-13T01:24:50.964Z,14.17
2018-07-13T01:27:19.242Z,13.00
2018-07-13T01:29:47.485Z,14.97
2018-07-13T01:32:15.744Z,12.83
2018-07-13T01:34:43.984Z,12.67
2018-07-13T01:37:12.230Z,13.03
2018-07-13T01:39:40.569Z,12.93
2018-07-13T01:42:08.814Z,12.80
2018-07-13T01:44:37.081Z,13.13
2018-07-13T01:47:05.292Z,13.20
2018-07-13T01:49:33.563Z,13.53
2018-07-13T01:52:01.789Z,13.97
2018-07-13T01:54:30.055Z,14.10
2018-07-13T01:56:58.335Z,13.80
2018-07-13T01:59:26.626Z,14.03
2018-07-13T02:01:54.870Z,13.87
2018-07-13T02:04:23.103Z,13.70
2018-07-13T02:06:51.483Z,14.33
2018-07-13T02:09:19.736Z,17.50
2018-07-13T02:11:48.011Z,13.43
2018-07-13T02:14:16.270Z,12.77
2018-07-13T02:16:44.541Z,13.90
2018-07-13T02:19:12.803Z,12.77
2018-07-13T02:21:41.072Z,15.57
2018-07-13T02:24:09.391Z,16.10
2018-07-13T02:26:37.648Z,13.30
2018-07-13T02:29:06.162Z,14.43
2018-07-13T02:31:34.383Z,18.63
2018-07-13T02:34:02.672Z,16.37
2018-07-13T02:36:31.027Z,18.63
2018-07-13T02:38:59.345Z,13.73
2018-07-13T02:41:27.512Z,13.27
2018-07-13T02:43:55.771Z,12.33
2018-07-13T02:46:24.086Z,14.70
2018-07-13T02:48:52.492Z,13.00
2018-07-13T02:51:20.735Z,12.87
2018-07-13T02:53:49.003Z,12.83
2018-07-13T02:56:17.250Z,15.57
2018-07-13T02:58:45.498Z,13.33
2018-07-13T03:01:13.769Z,16.37
2018-07-13T03:03:42.000Z,12.10
2018-07-13T03:06:10.403Z,13.03
2018-07-13T03:08:38.747Z,14.33
2018-07-13T03:11:07.123Z,13.13
2018-07-13T03:13:35.411Z,13.57
2018-07-13T03:16:03.738Z,18.17
2018-07-13T03:18:32.070Z,17.63
2018-07-13T03:21:00.532Z,21.37
2018-07-13T03:23:28.801Z,15.33
2018-07-13T03:25:57.121Z,13.67
2018-07-13T03:28:25.372Z,16.90
2018-07-13T03:30:53.647Z,16.83
2018-07-13T03:33:21.954Z,18.17
2018-07-13T03:35:49.924Z,18.90
2018-07-13T03:38:18.246Z,24.40
2018-07-13T03:40:46.448Z,16.97
2018-07-13T03:43:14.768Z,16.87
2018-07-13T03:45:43.045Z,18.90
2018-07-13T03:48:11.375Z,13.40
2018-07-13T03:50:39.716Z,14.73
2018-07-13T03:53:07.960Z,14.33
2018-07-13T03:55:36.203Z,19.77
2018-07-13T03:58:04.503Z,20.03
2018-07-13T04:00:32.831Z,15.10
2018-07-13T04:03:01.116Z,12.33
2018-07-13T04:05:29.371Z,14.10
2018-07-13T04:07:57.719Z,13.63
2018-07-13T04:10:25.722Z,14.33
2018-07-13T04:12:53.988Z,12.97
2018-07-13T04:15:22.260Z,12.17
2018-07-13T04:17:50.582Z,17.23
2018-07-13T04:20:18.893Z,19.33
2018-07-13T04:22:47.223Z,16.30
2018-07-13T04:25:15.560Z,18.17
2018-07-13T04:27:44.286Z,15.87
2018-07-13T04:30:12.555Z,15.97
2018-07-13T04:32:40.873Z,14.37
2018-07-13T04:35:09.142Z,14.13
2018-07-13T04:37:37.423Z,22.10
2018-07-13T04:40:05.714Z,21.50
2018-07-13T04:42:34.010Z,15.77
2018-07-13T04:45:02.280Z,10.13
2018-07-13T04:47:30.539Z,15.87
2018-07-13T04:49:58.860Z,23.50
2018-07-13T04:52:27.148Z,13.73
2018-07-13T04:54:55.407Z,13.37
2018-07-13T04:57:23.702Z,16.00
2018-07-13T04:59:52.006Z,13.57
2018-07-13T05:02:20.372Z,16.67
2018-07-13T05:04:48.589Z,18.03
2018-07-13T05:07:16.887Z,13.97
2018-07-13T05:09:45.190Z,18.40
2018-07-13T05:12:13.498Z,20.70
2018-07-13T05:14:41.767Z,19.20
2018-07-13T05:17:10.049Z,21.23
2018-07-13T05:19:38.580Z,12.60
2018-07-13T05:22:06.975Z,13.03
2018-07-13T05:24:35.270Z,16.63
2018-07-13T05:27:03.713Z,15.53
2018-07-13T05:29:32.026Z,18.57
2018-07-13T05:32:00.315Z,19.33
2018-07-13T05:34:28.576Z,15.10
2018-07-13T05:36:56.876Z,16.43
2018-07-13T05:39:25.135Z,18.43
2018-07-13T05:41:53.422Z,17.43
2018-07-13T05:44:21.700Z,20.90
2018-07-13T05:46:49.994Z,16.80
2018-07-13T05:49:18.224Z,17.70
2018-07-13T05:51:46.523Z,21.07
2018-07-13T05:54:15.062Z,15.00
2018-07-13T05:56:43.400Z,15.60
2018-07-13T05:59:11.647Z,18.13
2018-07-13T06:01:39.958Z,15.87
2018-07-13T06:04:11.490Z,13.27
2018-07-13T06:06:39.924Z,14.73
2018-07-13T06:09:10.128Z,17.40
2018-07-13T06:11:38.709Z,17.67
2018-07-13T06:14:07.149Z,18.37
2018-07-13T06:16:35.762Z,14.37
2018-07-13T06:19:04.078Z,13.90
2018-07-13T06:21:32.364Z,16.47
2018-07-13T06:24:00.921Z,20.20
2018-07-13T06:26:29.345Z,14.47
2018-07-13T06:28:57.622Z,20.07
2018-07-13T06:31:25.918Z,22.37
2018-07-13T06:33:54.162Z,19.83
2018-07-13T06:36:22.549Z,21.43
2018-07-13T06:38:57.232Z,15.73
2018-07-13T06:41:25.575Z,17.87
2018-07-13T06:43:53.848Z,18.87
2018-07-13T06:46:22.130Z,18.03
2018-07-13T06:48:50.329Z,15.00
2018-07-13T06:51:18.620Z,19.43
2018-07-13T06:53:46.903Z,15.87
2018-07-13T06:56:15.167Z,21.93
2018-07-13T06:59:16.845Z,16.83
2018-07-13T07:01:45.737Z,18.35
2018-07-13T07:04:37.240Z,16.30
2018-07-13T07:07:10.052Z,15.10
2018-07-13T07:09:39.348Z,17.10
2018-07-13T07:13:18.174Z,17.25
2018-07-13T07:15:46.394Z,16.82
2018-07-13T07:18:14.440Z,15.60
2018-07-13T07:20:42.671Z,16.50
2018-07-13T07:23:10.953Z,17.17
2018-07-13T07:25:39.239Z,15.35
2018-07-13T07:28:07.540Z,14.98
2018-07-13T07:30:35.954Z,16.20
2018-07-13T07:33:04.226Z,18.25
2018-07-13T07:35:32.193Z,15.38
2018-07-13T07:38:00.243Z,17.30
2018-07-13T07:40:28.476Z,16.15
2018-07-13T07:42:56.747Z,18.65
2018-07-13T07:45:25.088Z,20.62
2018-07-13T07:47:53.373Z,14.87
2018-07-13T07:50:22.569Z,18.15
2018-07-13T07:52:50.970Z,18.12
2018-07-13T07:55:19.656Z,15.35
2018-07-13T07:57:47.928Z,17.52
2018-07-13T08:00:16.196Z,17.82
2018-07-13T08:02:44.471Z,16.20
2018-07-13T08:05:12.830Z,16.40
2018-07-13T08:07:41.195Z,17.50
2018-07-13T08:10:09.414Z,17.75
2018-07-13T08:12:37.724Z,18.32
2018-07-13T08:15:06.022Z,19.60
2018-07-13T08:17:34.278Z,16.60
2018-07-13T08:20:02.916Z,19.65
2018-07-13T08:22:33.175Z,14.58
2018-07-13T08:25:02.368Z,19.05
2018-07-13T08:27:44.478Z,18.73
2018-07-13T08:30:17.712Z,14.33
2018-07-13T08:32:46.520Z,20.32
2018-07-13T08:35:15.234Z,18.30
2018-07-13T08:37:43.546Z,18.30
2018-07-13T08:40:11.894Z,18.48
2018-07-13T08:42:40.549Z,14.38
2018-07-13T08:45:09.063Z,12.33
2018-07-13T08:47:37.323Z,14.15
2018-07-13T08:50:05.736Z,13.08
2018-07-13T08:52:34.902Z,14.43
2018-07-13T08:55:08.129Z,18.40
2018-07-13T08:57:36.435Z,15.78
2018-07-13T09:00:05.117Z,15.08
2018-07-13T09:02:33.111Z,15.20
2018-07-13T09:05:01.792Z,15.90
2018-07-13T09:07:31.163Z,12.53
2018-07-13T09:09:59.819Z,16.07
2018-07-13T09:12:28.628Z,16.25
2018-07-13T09:14:56.933Z,11.63
2018-07-13T09:17:25.228Z,14.10
2018-07-13T09:19:53.626Z,13.30
2018-07-13T09:22:22.594Z,12.70
2018-07-13T09:24:50.828Z,9.48
2018-07-13T09:27:19.155Z,16.75
2018-07-13T09:29:47.549Z,12.65
2018-07-13T09:32:16.003Z,16.12
2018-07-13T09:34:44.247Z,15.25
2018-07-13T09:37:12.528Z,13.20
2018-07-13T09:39:40.504Z,14.80
2018-07-13T09:42:08.587Z,13.88
2018-07-13T09:44:36.861Z,14.05
2018-07-13T09:47:05.027Z,12.25
2018-07-13T09:49:33.212Z,15.65
2018-07-13T09:52:01.542Z,18.60
2018-07-13T09:54:29.822Z,12.00
2018-07-13T09:56:58.156Z,17.37
2018-07-13T09:59:26.680Z,16.57
2018-07-13T10:01:55.519Z,13.15
2018-07-13T10:04:23.846Z,13.75
2018-07-13T10:06:52.733Z,13.15
2018-07-13T10:09:21.146Z,14.30
2018-07-13T10:11:49.351Z,16.05
2018-07-13T10:14:17.761Z,12.63
2018-07-13T10:16:46.029Z,9.73
2018-07-13T10:19:14.333Z,12.60
2018-07-13T10:21:44.074Z,11.40
2018-07-13T10:24:15.631Z,12.25
2018-07-13T10:26:44.000Z,7.95
2018-07-13T10:29:17.689Z,11.83
2018-07-13T10:31:46.052Z,10.78
2018-07-13T10:34:16.579Z,11.22
2018-07-13T10:36:54.636Z,13.13
2018-07-13T10:39:23.263Z,11.63
2018-07-13T10:41:52.308Z,13.00
2018-07-13T10:44:20.663Z,10.68
2018-07-13T10:46:49.102Z,11.25
2018-07-13T10:49:17.596Z,9.90
2018-07-13T10:51:46.457Z,9.00
2018-07-13T10:54:15.169Z,7.58
2018-07-13T10:56:43.476Z,8.13
2018-07-13T10:59:11.790Z,12.60
2018-07-13T11:01:40.417Z,7.87
2018-07-13T11:04:09.270Z,7.50
2018-07-13T11:06:37.571Z,6.83
2018-07-13T11:09:06.751Z,7.72
2018-07-13T11:11:35.192Z,6.00
2018-07-13T11:14:04.765Z,9.93
2018-07-13T11:16:33.178Z,6.20
2018-07-13T11:19:01.859Z,4.60
2018-07-13T11:21:30.208Z,7.90
2018-07-13T11:23:58.916Z,6.30
2018-07-13T11:26:27.212Z,10.90
2018-07-13T11:28:55.568Z,9.78
2018-07-13T11:31:23.822Z,10.18
2018-07-13T11:33:52.135Z,7.00
2018-07-13T11:36:20.411Z,5.62
2018-07-13T11:38:48.748Z,5.00
2018-07-13T11:41:17.065Z,7.25
2018-07-13T11:43:45.535Z,8.30
2018-07-13T11:46:14.261Z,5.22
2018-07-13T11:48:42.548Z,9.48
2018-07-13T11:51:11.052Z,4.37
2018-07-13T11:53:45.887Z,4.80
2018-07-13T11:56:14.656Z,3.60
2018-07-13T11:58:43.005Z,4.87
2018-07-13T12:01:11.266Z,3.17
2018-07-13T12:03:39.545Z,4.22
2018-07-13T12:06:08.286Z,5.92
2018-07-13T12:08:36.594Z,5.80
2018-07-13T12:11:04.928Z,4.12
2018-07-13T12:13:33.212Z,5.83
2018-07-13T12:16:01.487Z,4.80
2018-07-13T12:18:29.799Z,6.58
2018-07-13T12:20:57.821Z,4.70
2018-07-13T12:23:26.542Z,7.22
2018-07-13T12:26:01.392Z,6.62
2018-07-13T12:28:29.417Z,5.37
2018-07-13T12:30:57.711Z,5.35
2018-07-13T12:33:25.956Z,10.38
2018-07-13T12:35:54.363Z,4.95
2018-07-13T12:38:22.616Z,4.28
2018-07-13T12:40:50.880Z,4.58
2018-07-13T12:43:19.167Z,4.47
2018-07-13T12:45:47.468Z,6.33
2018-07-13T12:48:15.765Z,5.90
2018-07-13T12:50:44.076Z,2.65
2018-07-13T12:53:12.384Z,3.52
2018-07-13T12:55:40.683Z,2.98
2018-07-13T12:58:09.054Z,4.30
2018-07-13T13:00:40.376Z,5.67
2018-07-13T13:03:08.715Z,4.28
2018-07-13T13:05:37.081Z,3.27
2018-07-13T13:08:05.547Z,5.62
2018-07-13T13:10:34.324Z,2.55
2018-07-13T13:13:02.602Z,5.72
2018-07-13T13:15:30.880Z,3.90
2018-07-13T13:17:59.177Z,5.22
2018-07-13T13:20:27.514Z,5.62
2018-07-13T13:22:55.811Z,4.72
2018-07-13T13:25:24.030Z,6.53
2018-07-13T13:27:53.235Z,4.08
2018-07-13T13:30:21.562Z,4.97
2018-07-13T13:32:49.831Z,3.92
2018-07-13T13:35:18.122Z,4.78
2018-07-13T13:37:46.359Z,4.42
2018-07-13T13:40:14.653Z,3.08
2018-07-13T13:42:46.141Z,3.33
2018-07-13T13:45:14.376Z,3.95
2018-07-13T13:47:42.764Z,3.67
2018-07-13T13:50:11.036Z,5.95
2018-07-13T13:52:39.352Z,5.37
2018-07-13T13:55:07.395Z,6.83
2018-07-13T13:57:36.123Z,8.25
2018-07-13T14:00:04.850Z,4.28
2018-07-13T14:02:33.268Z,4.45
2018-07-13T14:05:01.355Z,3.25
2018-07-13T14:07:29.640Z,5.85
2018-07-13T14:09:57.911Z,3.95
2018-07-13T14:12:26.326Z,5.92
2018-07-13T14:14:54.714Z,5.17
2018-07-13T14:17:22.630Z,4.40
2018-07-13T14:19:50.878Z,5.65
2018-07-13T14:22:19.164Z,3.10
2018-07-13T14:24:47.566Z,5.62
2018-07-13T14:27:15.855Z,2.87
2018-07-13T14:29:44.138Z,2.50
2018-07-13T14:32:12.410Z,4.15
2018-07-13T14:34:40.708Z,4.92
2018-07-13T14:37:09.045Z,4.67
2018-07-13T14:39:37.355Z,5.45
2018-07-13T14:42:05.626Z,6.08
2018-07-13T14:44:33.899Z,4.05
2018-07-13T14:47:02.217Z,2.83
2018-07-13T14:49:32.149Z,3.62
2018-07-13T14:52:00.415Z,2.40
2018-07-13T14:54:28.742Z,4.92
2018-07-13T14:56:56.981Z,7.17
2018-07-13T14:59:25.291Z,3.40
2018-07-13T15:01:53.751Z,2.27
2018-07-13T15:04:21.808Z,5.83
2018-07-13T15:06:50.450Z,4.17
2018-07-13T15:09:18.360Z,2.85
2018-07-13T15:11:46.609Z,2.62
2018-07-13T15:14:14.970Z,4.42
2018-07-13T15:16:43.274Z,4.85
2018-07-13T15:19:11.538Z,4.00
2018-07-13T15:21:39.802Z,2.95
2018-07-13T15:24:08.095Z,3.20
2018-07-13T15:26:36.368Z,3.25
2018-07-13T15:29:04.726Z,2.55
2018-07-13T15:31:32.971Z,2.40
2018-07-13T15:34:01.211Z,3.55
2018-07-13T15:36:29.496Z,4.92
2018-07-13T15:38:57.716Z,3.52
2018-07-13T15:41:25.963Z,3.42
2018-07-13T15:43:54.199Z,6.53
2018-07-13T15:46:22.549Z,3.90
2018-07-13T15:48:51.056Z,3.58
2018-07-13T15:51:19.346Z,4.10
2018-07-13T15:53:47.587Z,4.17
2018-07-13T15:56:15.903Z,6.35
2018-07-13T15:58:44.410Z,3.80
2018-07-13T16:01:12.499Z,5.30
2018-07-13T16:03:40.870Z,3.75
2018-07-13T16:06:09.266Z,5.95
2018-07-13T16:08:37.647Z,3.17
2018-07-13T16:11:06.041Z,3.10
2018-07-13T16:13:35.351Z,2.87
2018-07-13T16:16:03.655Z,3.75
2018-07-13T16:18:31.892Z,3.83
2018-07-13T16:21:00.210Z,2.95
2018-07-13T16:23:28.446Z,4.58
2018-07-13T16:25:57.550Z,3.67
2018-07-13T16:28:25.835Z,6.20
2018-07-13T16:30:54.049Z,5.05
2018-07-13T16:33:22.327Z,2.65
2018-07-13T16:35:50.621Z,4.83
2018-07-13T16:38:19.058Z,6.28
2018-07-13T16:40:47.380Z,6.78
2018-07-13T16:43:15.655Z,4.45
2018-07-13T16:45:44.014Z,4.03
2018-07-13T16:48:12.260Z,4.35
2018-07-13T16:50:40.619Z,5.50
2018-07-13T16:53:08.838Z,2.98
2018-07-13T16:55:37.066Z,5.62
2018-07-13T16:58:05.295Z,5.33
2018-07-13T17:00:33.558Z,5.97
2018-07-13T17:03:01.872Z,5.90
2018-07-13T17:05:31.107Z,2.80
2018-07-13T17:07:59.401Z,3.62
2018-07-13T17:10:27.819Z,2.75
2018-07-13T17:12:56.187Z,6.42
2018-07-13T17:15:24.690Z,4.30
2018-07-13T17:17:52.966Z,4.53
2018-07-13T17:20:21.431Z,3.33
2018-07-13T17:22:49.417Z,3.17
2018-07-13T17:25:17.734Z,3.37
2018-07-13T17:27:46.064Z,4.40
2018-07-13T17:30:14.447Z,4.60
2018-07-13T17:32:42.923Z,8.23
2018-07-13T17:35:11.673Z,3.75
2018-07-13T17:37:39.967Z,6.75
2018-07-13T17:40:08.255Z,3.08
2018-07-13T17:42:36.694Z,4.62
2018-07-13T17:45:05.078Z,4.30
2018-07-13T17:47:33.049Z,7.12
2018-07-13T17:50:01.027Z,5.65
2018-07-13T17:52:29.472Z,3.75
2018-07-13T17:54:57.755Z,5.85
2018-07-13T17:57:26.001Z,4.92
2018-07-13T17:59:54.222Z,8.83
2018-07-13T18:02:22.472Z,3.10
2018-07-13T18:04:50.871Z,3.67
2018-07-13T18:07:19.252Z,3.55
2018-07-13T18:09:47.479Z,3.20
2018-07-13T18:12:15.848Z,6.45
2018-07-13T18:14:44.195Z,7.50
2018-07-13T18:17:12.238Z,4.33
2018-07-13T18:19:40.508Z,4.80
2018-07-13T18:22:08.918Z,3.52
2018-07-13T18:24:36.978Z,3.02
2018-07-13T18:27:05.475Z,4.70
2018-07-13T18:29:33.728Z,4.72
2018-07-13T18:32:02.059Z,5.10
2018-07-13T18:34:30.311Z,3.92
2018-07-13T18:36:58.644Z,4.37
2018-07-13T18:39:26.983Z,5.15
2018-07-13T18:41:55.335Z,6.20
2018-07-13T18:44:24.215Z,4.22
2018-07-13T18:46:52.480Z,3.00
2018-07-13T18:49:20.810Z,3.30
2018-07-13T18:51:49.127Z,3.90
2018-07-13T18:54:17.580Z,7.30
2018-07-13T18:56:46.224Z,3.70
2018-07-13T18:59:16.316Z,3.12
2018-07-13T19:01:44.800Z,5.22
2018-07-13T19:04:13.371Z,4.37
2018-07-13T19:06:41.932Z,3.98
2018-07-13T19:09:12.041Z,4.70
2018-07-13T19:11:41.392Z,3.08
2018-07-13T19:14:10.303Z,5.00
2018-07-13T19:16:38.591Z,4.70
2018-07-13T19:19:06.903Z,5.92
2018-07-13T19:21:35.187Z,5.28
2018-07-13T19:24:03.507Z,4.25
2018-07-13T19:26:31.543Z,6.53
2018-07-13T19:28:59.836Z,2.80
2018-07-13T19:31:28.127Z,3.02
2018-07-13T19:33:56.429Z,3.92
2018-07-13T19:36:24.721Z,4.10
2018-07-13T19:38:53.006Z,6.20
2018-07-13T19:41:21.280Z,4.35
2018-07-13T19:43:49.564Z,4.03
2018-07-13T19:46:17.860Z,4.67
2018-07-13T19:48:46.435Z,2.87
2018-07-13T19:51:14.804Z,5.75
2018-07-13T19:53:43.114Z,2.65
2018-07-13T19:56:11.533Z,4.00
2018-07-13T19:58:39.840Z,4.60
2018-07-13T20:01:08.130Z,4.35
2018-07-13T20:03:36.411Z,4.25
2018-07-13T20:06:04.677Z,3.58
2018-07-13T20:08:32.996Z,4.65
2018-07-13T20:11:01.286Z,4.12
2018-07-13T20:13:29.523Z,5.75
2018-07-13T20:15:57.799Z,3.72
2018-07-13T20:18:26.039Z,3.30
2018-07-13T20:20:54.315Z,4.53
2018-07-13T20:23:22.618Z,4.05
2018-07-13T20:25:50.863Z,5.30
2018-07-13T20:28:19.226Z,3.87
2018-07-13T20:30:47.547Z,3.35
2018-07-13T20:33:15.835Z,7.25
2018-07-13T20:35:44.081Z,3.98
2018-07-13T20:38:12.352Z,7.42
2018-07-13T20:40:40.588Z,3.90
2018-07-13T20:43:08.846Z,11.00
2018-07-13T20:45:37.102Z,6.75
2018-07-13T20:48:05.412Z,9.95
2018-07-13T20:50:33.908Z,3.42
2018-07-13T20:53:02.205Z,4.12
2018-07-13T20:55:30.619Z,5.12
2018-07-13T20:57:58.978Z,5.92
2018-07-13T21:00:27.263Z,4.78
2018-07-13T21:02:55.767Z,3.85
2018-07-13T21:05:24.046Z,4.40
2018-07-13T21:07:52.306Z,4.53
2018-07-13T21:10:20.654Z,7.03
2018-07-13T21:12:48.971Z,6.78
2018-07-13T21:15:17.229Z,8.13
2018-07-13T21:17:45.702Z,6.10
2018-07-13T21:20:14.105Z,5.03
2018-07-13T21:22:42.284Z,8.38
2018-07-13T21:25:10.681Z,5.80
2018-07-13T21:27:38.979Z,4.85
2018-07-13T21:30:07.743Z,4.78
2018-07-13T21:32:36.066Z,7.25
2018-07-13T21:35:04.361Z,8.90
2018-07-13T21:37:32.663Z,10.70
2018-07-13T21:40:01.053Z,9.05
2018-07-13T21:42:29.323Z,10.60
2018-07-13T21:44:57.533Z,8.60
2018-07-13T21:47:25.673Z,6.05
2018-07-13T21:49:54.110Z,4.78
2018-07-13T21:52:22.502Z,4.72
2018-07-13T21:54:50.943Z,8.30
2018-07-13T21:57:19.298Z,7.83
2018-07-13T21:59:47.603Z,7.42
2018-07-13T22:02:15.932Z,7.15
2018-07-13T22:04:44.396Z,7.60
2018-07-13T22:07:12.476Z,9.63
2018-07-13T22:09:40.803Z,5.03
2018-07-13T22:12:09.081Z,8.50
2018-07-13T22:14:37.470Z,6.83
2018-07-13T22:17:05.768Z,7.30
2018-07-13T22:19:33.972Z,10.53
2018-07-13T22:22:01.968Z,10.13
2018-07-13T22:24:30.214Z,11.65
2018-07-13T22:26:58.191Z,9.28
2018-07-13T22:29:26.186Z,9.90
2018-07-13T22:31:54.512Z,10.88
2018-07-13T22:34:22.761Z,8.38
2018-07-13T22:36:51.031Z,10.48
2018-07-13T22:39:19.375Z,8.60
2018-07-13T22:41:47.626Z,9.65
2018-07-13T22:44:16.148Z,10.18
2018-07-13T22:46:44.461Z,10.05
2018-07-13T22:49:12.741Z,12.07
2018-07-13T22:51:41.003Z,11.20
2018-07-13T22:54:09.360Z,12.82
2018-07-13T22:56:37.608Z,9.85
2018-07-13T22:59:05.609Z,9.75
2018-07-13T23:01:33.838Z,9.93
2018-07-13T23:04:02.598Z,7.55
2018-07-13T23:06:30.871Z,7.00
2018-07-13T23:08:59.144Z,10.58
2018-07-13T23:11:27.370Z,13.22
2018-07-13T23:13:55.614Z,6.70
2018-07-13T23:16:23.927Z,6.90
2018-07-13T23:18:52.221Z,7.73
2018-07-13T23:21:20.647Z,7.20
2018-07-13T23:23:48.964Z,8.27
2018-07-13T23:26:17.196Z,8.23
2018-07-13T23:28:45.473Z,7.12
2018-07-13T23:31:13.690Z,7.97
2018-07-13T23:33:42.017Z,10.07
2018-07-13T23:36:10.296Z,7.43
2018-07-13T23:38:38.556Z,7.12
2018-07-13T23:41:06.900Z,7.42
2018-07-13T23:43:35.125Z,7.90
2018-07-13T23:46:03.444Z,5.83
2018-07-13T23:48:31.681Z,5.93
2018-07-13T23:50:59.983Z,10.07
2018-07-13T23:53:28.247Z,8.13
2018-07-13T23:55:56.471Z,6.80
2018-07-13T23:58:24.751Z,7.63
